createdAt,value
2018-12-18T00:00:30.837Z,37.64
2018-12-18T00:02:38.122Z,37.15
2018-12-18T00:04:44.884Z,36.72
2018-12-18T00:06:51.648Z,36.12
2018-12-18T00:08:58.658Z,36.95
2018-12-18T00:11:08.023Z,35.93
2018-12-18T00:13:15.121Z,36.46
2018-12-18T00:15:22.038Z,36.34
2018-12-18T00:17:28.965Z,36.38
2018-12-18T00:19:36.051Z,35.96
2018-12-18T00:21:42.842Z,36.32
2018-12-18T00:23:50.239Z,36.25
2018-12-18T00:25:57.074Z,36.52
2018-12-18T00:28:03.957Z,36.44
2018-12-18T00:30:12.136Z,37.01
2018-12-18T00:32:19.794Z,37.61
2018-12-18T00:34:28.451Z,37.25
2018-12-18T00:36:35.462Z,37.08
2018-12-18T00:38:42.269Z,37.01
2018-12-18T00:40:51.680Z,36.95
2018-12-18T00:43:00.035Z,37.22
2018-12-18T00:45:07.361Z,32.24
2018-12-18T00:47:14.408Z,32.29
2018-12-18T00:49:21.073Z,34.97
2018-12-18T00:51:27.733Z,34.54
2018-12-18T00:53:34.370Z,34.25
2018-12-18T00:55:40.990Z,34.16
2018-12-18T00:57:47.735Z,35.17
2018-12-18T00:59:54.530Z,35.39
2018-12-18T01:02:01.433Z,35.11
2018-12-18T01:04:08.618Z,34.95
2018-12-18T01:06:15.733Z,35.17
2018-12-18T01:08:22.451Z,35.28
2018-12-18T01:10:29.119Z,34.58
2018-12-18T01:12:35.906Z,35.15
2018-12-18T01:17:10.243Z,35.15
2018-12-18T01:19:21.585Z,35.62
2018-12-18T01:21:29.730Z,35.18
2018-12-18T01:25:51.519Z,35.66
2018-12-18T01:28:02.885Z,35.30
2018-12-18T01:32:28.041Z,35.87
2018-12-18T01:34:35.835Z,35.07
2018-12-18T01:36:43.023Z,35.67
2018-12-18T01:38:49.898Z,36.27
2018-12-18T01:40:56.795Z,35.52
2018-12-18T01:43:04.101Z,34.82
2018-12-18T01:45:10.758Z,35.61
2018-12-18T01:47:17.839Z,35.23
2018-12-18T01:49:24.645Z,35.23
2018-12-18T01:51:31.582Z,36.10
2018-12-18T01:53:38.498Z,36.09
2018-12-18T01:55:46.098Z,35.54
2018-12-18T01:57:52.794Z,35.58
2018-12-18T01:59:59.753Z,35.72
2018-12-18T02:02:06.590Z,35.43
2018-12-18T02:04:13.318Z,35.65
2018-12-18T02:06:20.321Z,35.71
2018-12-18T02:08:27.011Z,34.99
2018-12-18T02:10:33.930Z,34.76
2018-12-18T02:12:40.616Z,35.59
2018-12-18T02:14:47.279Z,35.25
2018-12-18T02:16:54.342Z,34.93
2018-12-18T02:19:01.754Z,35.82
2018-12-18T02:21:09.197Z,35.38
2018-12-18T02:23:16.097Z,36.00
2018-12-18T02:25:22.871Z,35.72
2018-12-18T02:27:29.583Z,35.62
2018-12-18T02:29:36.351Z,34.90
2018-12-18T02:31:43.092Z,36.29
2018-12-18T02:33:50.288Z,36.32
2018-12-18T02:35:57.345Z,36.10
2018-12-18T02:38:04.235Z,36.32
2018-12-18T02:40:10.875Z,35.44
2018-12-18T02:42:17.976Z,35.57
2018-12-18T02:44:25.466Z,35.18
2018-12-18T02:46:32.202Z,35.04
2018-12-18T02:48:39.172Z,35.59
2018-12-18T02:50:46.068Z,34.92
2018-12-18T02:52:53.010Z,35.18
2018-12-18T02:55:00.124Z,35.87
2018-12-18T02:57:06.928Z,36.37
2018-12-18T02:59:13.541Z,36.03
2018-12-18T03:01:20.399Z,36.62
2018-12-18T03:03:27.154Z,35.86
2018-12-18T03:05:33.823Z,36.20
2018-12-18T03:07:40.742Z,35.71
2018-12-18T03:09:47.483Z,35.79
2018-12-18T03:11:54.498Z,35.72
2018-12-18T03:14:01.533Z,36.44
2018-12-18T03:16:08.730Z,35.81
2018-12-18T03:18:15.645Z,36.54
2018-12-18T03:20:22.683Z,35.99
2018-12-18T03:22:29.883Z,35.10
2018-12-18T03:24:36.702Z,35.59
2018-12-18T03:26:43.452Z,35.45
2018-12-18T03:28:50.491Z,35.66
2018-12-18T03:30:57.574Z,36.66
2018-12-18T03:33:04.799Z,35.48
2018-12-18T03:35:12.049Z,36.61
2018-12-18T03:37:19.146Z,35.64
2018-12-18T03:39:26.206Z,35.89
2018-12-18T03:41:33.342Z,35.84
2018-12-18T03:43:40.429Z,35.28
2018-12-18T03:45:47.174Z,35.27
2018-12-18T03:47:54.333Z,35.11
2018-12-18T03:50:00.934Z,36.33
2018-12-18T03:52:07.569Z,35.63
2018-12-18T03:54:14.553Z,35.29
2018-12-18T03:56:21.469Z,34.72
2018-12-18T03:58:28.728Z,34.75
2018-12-18T04:00:35.615Z,35.70
2018-12-18T04:02:44.888Z,32.96
2018-12-18T04:04:51.650Z,35.21
2018-12-18T04:06:58.892Z,35.35
2018-12-18T04:09:07.039Z,35.07
2018-12-18T04:11:13.854Z,35.01
2018-12-18T04:13:20.646Z,34.95
2018-12-18T04:15:27.592Z,35.72
2018-12-18T04:17:34.263Z,34.92
2018-12-18T04:19:40.880Z,35.00
2018-12-18T04:21:47.542Z,35.38
2018-12-18T04:23:54.474Z,35.76
2018-12-18T04:26:01.280Z,35.16
2018-12-18T04:28:08.004Z,34.71
2018-12-18T04:30:14.649Z,36.78
2018-12-18T04:32:21.392Z,35.71
2018-12-18T04:34:28.166Z,35.55
2018-12-18T04:36:35.455Z,35.81
2018-12-18T04:38:42.730Z,35.38
2018-12-18T04:40:50.230Z,35.64
2018-12-18T04:42:56.931Z,34.98
2018-12-18T04:45:04.130Z,34.93
2018-12-18T04:47:10.812Z,33.47
2018-12-18T04:49:18.320Z,34.32
2018-12-18T04:51:25.157Z,33.63
2018-12-18T04:53:32.001Z,33.32
2018-12-18T04:55:39.338Z,34.30
2018-12-18T04:57:46.165Z,35.14
2018-12-18T04:59:52.853Z,34.36
2018-12-18T05:02:00.380Z,35.30
2018-12-18T05:04:07.223Z,34.97
2018-12-18T05:06:13.990Z,35.27
2018-12-18T05:08:20.717Z,35.15
2018-12-18T05:10:27.500Z,35.57
2018-12-18T05:12:34.211Z,35.11
2018-12-18T05:14:41.044Z,35.35
2018-12-18T05:16:48.038Z,34.89
2018-12-18T05:18:54.863Z,34.91
2018-12-18T05:21:01.601Z,35.41
2018-12-18T05:23:08.631Z,35.15
2018-12-18T05:25:15.376Z,35.01
2018-12-18T05:27:22.113Z,35.11
2018-12-18T05:29:28.878Z,34.31
2018-12-18T05:31:35.764Z,34.03
2018-12-18T05:33:42.665Z,34.45
2018-12-18T05:35:49.573Z,33.37
2018-12-18T05:37:56.482Z,33.65
2018-12-18T05:40:03.272Z,34.70
2018-12-18T05:42:10.348Z,35.15
2018-12-18T05:44:17.218Z,34.66
2018-12-18T05:46:24.137Z,35.08
2018-12-18T05:48:31.234Z,34.54
2018-12-18T05:50:38.466Z,34.88
2018-12-18T05:52:45.246Z,34.94
2018-12-18T05:54:52.110Z,35.17
2018-12-18T05:56:58.890Z,35.17
2018-12-18T05:59:05.733Z,34.54
2018-12-18T06:01:12.836Z,34.50
2018-12-18T06:03:19.498Z,35.32
2018-12-18T06:05:26.334Z,34.57
2018-12-18T06:07:32.783Z,35.73
2018-12-18T06:09:39.567Z,35.60
2018-12-18T06:11:46.397Z,35.81
2018-12-18T06:13:53.374Z,34.23
2018-12-18T06:16:00.305Z,34.31
2018-12-18T06:18:07.110Z,33.56
2018-12-18T06:20:14.130Z,33.79
2018-12-18T06:22:21.113Z,32.91
2018-12-18T06:24:28.071Z,34.85
2018-12-18T06:26:35.000Z,35.13
2018-12-18T06:28:42.290Z,34.53
2018-12-18T06:30:49.203Z,34.33
2018-12-18T06:32:56.131Z,35.25
2018-12-18T06:35:02.862Z,35.37
2018-12-18T06:37:09.810Z,34.97
2018-12-18T06:39:16.846Z,34.69
2018-12-18T06:41:23.676Z,34.84
2018-12-18T06:43:30.373Z,34.97
2018-12-18T06:45:36.874Z,35.32
2018-12-18T06:47:43.733Z,35.08
2018-12-18T06:49:50.607Z,35.37
2018-12-18T06:51:57.354Z,35.40
2018-12-18T06:54:04.566Z,35.45
2018-12-18T06:56:11.256Z,35.33
2018-12-18T06:58:18.078Z,35.63
2018-12-18T07:00:25.172Z,35.43
2018-12-18T07:02:31.714Z,35.15
2018-12-18T07:04:38.955Z,35.71
2018-12-18T07:06:45.698Z,34.52
2018-12-18T07:08:52.783Z,35.35
2018-12-18T07:10:59.463Z,35.65
2018-12-18T07:13:06.218Z,34.03
2018-12-18T07:15:13.101Z,33.89
2018-12-18T07:17:19.802Z,33.39
2018-12-18T07:19:26.588Z,33.55
2018-12-18T07:21:33.295Z,33.20
2018-12-18T07:23:40.019Z,32.89
2018-12-18T07:25:47.143Z,34.63
2018-12-18T07:27:54.013Z,34.31
2018-12-18T07:30:00.941Z,34.25
2018-12-18T07:32:07.838Z,34.63
2018-12-18T07:34:14.731Z,34.75
2018-12-18T07:36:21.744Z,34.59
2018-12-18T07:38:28.786Z,35.24
2018-12-18T07:40:35.486Z,35.32
2018-12-18T07:42:42.323Z,34.94
2018-12-18T07:44:49.771Z,35.18
2018-12-18T07:46:56.663Z,35.38
2018-12-18T07:49:03.406Z,35.25
2018-12-18T07:51:10.354Z,35.16
2018-12-18T07:53:16.938Z,35.63
2018-12-18T07:55:23.734Z,35.58
2018-12-18T07:57:30.777Z,35.10
2018-12-18T07:59:37.492Z,35.59
2018-12-18T08:01:44.380Z,35.26
2018-12-18T08:03:51.406Z,35.03
2018-12-18T08:05:58.389Z,34.52
2018-12-18T08:08:05.194Z,34.19
2018-12-18T08:10:12.807Z,34.10
2018-12-18T08:12:22.325Z,33.43
2018-12-18T08:14:29.377Z,33.39
2018-12-18T08:16:36.024Z,33.26
2018-12-18T08:18:42.922Z,32.90
2018-12-18T08:20:50.434Z,32.64
2018-12-18T08:22:57.270Z,32.01
2018-12-18T08:25:04.314Z,31.65
2018-12-18T08:27:11.745Z,32.06
2018-12-18T08:29:18.629Z,31.58
2018-12-18T08:31:25.528Z,31.75
2018-12-18T08:33:32.942Z,32.15
2018-12-18T08:35:39.433Z,31.94
2018-12-18T08:37:46.107Z,31.96
2018-12-18T08:39:52.918Z,32.66
2018-12-18T08:41:59.766Z,32.63
2018-12-18T08:44:06.521Z,32.17
2018-12-18T08:46:13.311Z,32.74
2018-12-18T08:48:20.223Z,32.37
2018-12-18T08:50:26.898Z,32.32
2018-12-18T08:52:33.590Z,32.34
2018-12-18T08:54:40.568Z,32.68
2018-12-18T08:56:47.535Z,32.59
2018-12-18T08:58:54.374Z,32.84
2018-12-18T09:01:01.207Z,32.65
2018-12-18T09:03:07.936Z,32.53
2018-12-18T09:05:14.653Z,32.80
2018-12-18T09:07:21.765Z,32.17
2018-12-18T09:09:28.498Z,32.27
2018-12-18T09:11:35.578Z,32.59
2018-12-18T09:13:42.408Z,32.37
2018-12-18T09:15:54.024Z,32.08
2018-12-18T09:18:01.080Z,31.21
2018-12-18T09:20:07.964Z,31.21
2018-12-18T09:22:14.970Z,31.35
2018-12-18T09:24:22.450Z,30.55
2018-12-18T09:26:29.283Z,30.46
2018-12-18T09:28:36.073Z,30.81
2018-12-18T09:30:43.131Z,30.77
2018-12-18T09:32:49.930Z,30.86
2018-12-18T09:34:56.681Z,30.96
2018-12-18T09:37:03.402Z,30.98
2018-12-18T09:39:15.599Z,30.83
2018-12-18T09:41:30.760Z,31.29
2018-12-18T09:43:42.326Z,31.44
2018-12-18T09:45:48.982Z,31.53
2018-12-18T09:47:55.782Z,31.63
2018-12-18T09:50:02.729Z,31.38
2018-12-18T09:52:10.053Z,31.93
2018-12-18T09:54:16.865Z,31.37
2018-12-18T09:56:24.070Z,31.88
2018-12-18T09:58:30.782Z,31.96
2018-12-18T10:00:38.031Z,31.49
2018-12-18T10:02:45.250Z,31.99
2018-12-18T10:04:52.153Z,31.59
2018-12-18T10:06:59.138Z,31.70
2018-12-18T10:09:09.678Z,31.64
2018-12-18T10:11:16.510Z,31.74
2018-12-18T10:13:23.199Z,31.63
2018-12-18T10:15:30.629Z,32.06
2018-12-18T10:17:37.394Z,31.95
2018-12-18T10:19:44.273Z,31.95
2018-12-18T10:21:50.828Z,31.82
2018-12-18T10:23:57.754Z,31.22
2018-12-18T10:26:04.525Z,31.31
2018-12-18T10:28:11.394Z,31.12
2018-12-18T10:30:18.321Z,31.27
2018-12-18T10:32:25.016Z,31.03
2018-12-18T10:34:31.619Z,31.18
2018-12-18T10:36:38.769Z,30.77
2018-12-18T10:38:45.414Z,30.43
2018-12-18T10:40:53.820Z,29.94
2018-12-18T10:43:00.609Z,30.59
2018-12-18T10:45:13.703Z,30.25
2018-12-18T10:47:17.666Z,30.86
2018-12-18T10:49:24.461Z,30.49
2018-12-18T10:51:31.316Z,30.63
2018-12-18T10:53:38.312Z,30.69
2018-12-18T10:55:45.377Z,30.74
2018-12-18T10:57:52.157Z,31.27
2018-12-18T10:59:58.861Z,31.31
2018-12-18T11:02:06.307Z,31.42
2018-12-18T11:04:13.258Z,31.01
2018-12-18T11:06:20.236Z,31.01
2018-12-18T11:08:27.042Z,31.59
2018-12-18T11:10:33.654Z,30.96
2018-12-18T11:12:44.072Z,30.92
2018-12-18T11:14:51.665Z,30.78
2018-12-18T11:16:58.519Z,30.58
2018-12-18T11:19:05.266Z,31.00
2018-12-18T11:21:12.125Z,30.84
2018-12-18T11:23:19.749Z,30.55
2018-12-18T11:25:27.070Z,30.04
2018-12-18T11:27:33.877Z,29.89
2018-12-18T11:29:40.676Z,29.99
2018-12-18T11:31:46.946Z,29.71
2018-12-18T11:33:54.246Z,30.24
2018-12-18T11:36:01.196Z,29.87
2018-12-18T11:38:08.385Z,30.43
2018-12-18T11:40:15.231Z,30.43
2018-12-18T11:42:22.091Z,30.27
2018-12-18T11:44:29.127Z,30.40
2018-12-18T11:46:35.849Z,30.06
2018-12-18T11:48:42.751Z,30.50
2018-12-18T11:50:49.458Z,30.80
2018-12-18T11:52:55.999Z,30.38
2018-12-18T11:55:02.754Z,30.88
2018-12-18T11:57:09.606Z,30.53
2018-12-18T11:59:16.393Z,31.23
2018-12-18T12:01:23.346Z,31.20
2018-12-18T12:03:30.236Z,30.96
2018-12-18T12:05:38.149Z,31.93
2018-12-18T12:07:45.162Z,30.76
2018-12-18T12:09:51.913Z,30.59
2018-12-18T12:11:58.826Z,30.56
2018-12-18T12:14:05.652Z,30.36
2018-12-18T12:16:12.362Z,29.58
2018-12-18T12:18:19.093Z,29.79
2018-12-18T12:20:26.846Z,30.26
2018-12-18T12:22:33.673Z,29.63
2018-12-18T12:24:40.338Z,29.71
2018-12-18T12:26:49.902Z,29.76
2018-12-18T12:28:56.677Z,30.23
2018-12-18T12:31:03.395Z,30.31
2018-12-18T12:33:10.221Z,30.57
2018-12-18T12:35:16.985Z,30.31
2018-12-18T12:37:23.664Z,30.40
2018-12-18T12:39:30.939Z,29.73
2018-12-18T12:41:37.989Z,30.29
2018-12-18T12:43:45.783Z,29.54
2018-12-18T12:45:53.060Z,30.06
2018-12-18T12:48:03.896Z,29.86
2018-12-18T12:50:11.054Z,29.74
2018-12-18T12:52:17.697Z,29.37
2018-12-18T12:54:24.778Z,29.01
2018-12-18T12:56:31.605Z,29.04
2018-12-18T12:58:38.336Z,29.60
2018-12-18T13:00:45.159Z,29.26
2018-12-18T13:02:52.569Z,28.81
2018-12-18T13:04:59.489Z,28.72
2018-12-18T13:07:06.384Z,29.09
2018-12-18T13:09:13.262Z,28.67
2018-12-18T13:11:19.994Z,29.03
2018-12-18T13:13:26.642Z,28.97
2018-12-18T13:15:33.663Z,28.90
2018-12-18T13:17:40.549Z,28.83
2018-12-18T13:19:47.483Z,28.66
2018-12-18T13:21:54.478Z,28.79
2018-12-18T13:24:01.311Z,28.83
2018-12-18T13:26:08.235Z,28.58
2018-12-18T13:28:15.135Z,28.50
2018-12-18T13:30:22.052Z,28.90
2018-12-18T13:32:29.429Z,28.54
2018-12-18T13:34:36.331Z,28.55
2018-12-18T13:36:43.328Z,28.53
2018-12-18T13:38:50.237Z,28.61
2018-12-18T13:40:57.255Z,29.31
2018-12-18T13:43:04.291Z,29.33
2018-12-18T13:45:11.410Z,28.56
2018-12-18T13:47:18.477Z,28.76
2018-12-18T13:49:25.258Z,28.68
2018-12-18T13:51:32.405Z,28.88
2018-12-18T13:53:39.503Z,29.12
2018-12-18T13:55:46.231Z,29.99
2018-12-18T13:57:52.979Z,29.14
2018-12-18T13:59:59.922Z,29.00
2018-12-18T14:02:06.787Z,30.31
2018-12-18T14:04:13.791Z,29.74
2018-12-18T14:06:20.698Z,29.96
2018-12-18T14:08:27.530Z,30.06
2018-12-18T14:10:34.194Z,29.62
2018-12-18T14:12:41.284Z,29.67
2018-12-18T14:14:48.097Z,29.76
2018-12-18T14:16:54.876Z,30.69
2018-12-18T14:19:01.734Z,31.17
2018-12-18T14:21:08.503Z,29.86
2018-12-18T14:23:15.102Z,30.05
2018-12-18T14:25:21.945Z,29.87
2018-12-18T14:27:28.698Z,29.36
2018-12-18T14:29:36.646Z,29.67
2018-12-18T14:31:43.626Z,28.93
2018-12-18T14:33:50.603Z,28.60
2018-12-18T14:35:59.193Z,28.97
2018-12-18T14:38:05.829Z,29.49
2018-12-18T14:40:13.027Z,29.25
2018-12-18T14:42:19.703Z,28.80
2018-12-18T14:44:26.598Z,29.15
2018-12-18T14:46:33.325Z,28.72
2018-12-18T14:48:40.240Z,28.52
2018-12-18T14:50:46.837Z,28.97
2018-12-18T14:52:53.691Z,29.00
2018-12-18T14:55:00.838Z,28.32
2018-12-18T14:57:07.634Z,28.64
2018-12-18T14:59:14.592Z,28.53
2018-12-18T15:01:21.237Z,28.51
2018-12-18T15:03:28.094Z,29.20
2018-12-18T15:05:34.826Z,28.97
2018-12-18T15:07:41.676Z,29.31
2018-12-18T15:09:48.591Z,28.91
2018-12-18T15:11:55.524Z,29.01
2018-12-18T15:14:02.498Z,29.64
2018-12-18T15:16:09.230Z,29.18
2018-12-18T15:18:16.495Z,29.12
2018-12-18T15:20:23.381Z,28.86
2018-12-18T15:22:30.185Z,28.53
2018-12-18T15:24:37.490Z,28.64
2018-12-18T15:26:44.157Z,28.78
2018-12-18T15:28:50.866Z,27.96
2018-12-18T15:30:58.018Z,28.26
2018-12-18T15:33:05.414Z,28.97
2018-12-18T15:35:12.093Z,28.31
2018-12-18T15:37:19.234Z,28.16
2018-12-18T15:39:26.473Z,28.30
2018-12-18T15:41:33.318Z,28.08
2018-12-18T15:43:40.223Z,28.27
2018-12-18T15:45:46.981Z,28.50
2018-12-18T15:47:53.700Z,28.29
2018-12-18T15:50:00.630Z,28.13
2018-12-18T15:52:07.490Z,28.38
2018-12-18T15:54:14.462Z,28.39
2018-12-18T15:56:21.453Z,28.32
2018-12-18T15:58:28.170Z,28.51
2018-12-18T16:00:34.910Z,29.23
2018-12-18T16:02:41.781Z,29.12
2018-12-18T16:04:48.678Z,28.49
2018-12-18T16:06:55.582Z,28.67
2018-12-18T16:09:02.314Z,29.16
2018-12-18T16:11:09.262Z,29.11
2018-12-18T16:13:16.027Z,28.65
2018-12-18T16:15:23.227Z,28.89
2018-12-18T16:17:30.086Z,28.85
2018-12-18T16:19:37.271Z,29.42
2018-12-18T16:21:44.210Z,28.77
2018-12-18T16:23:51.277Z,29.01
2018-12-18T16:25:58.253Z,29.25
2018-12-18T16:28:04.947Z,29.36
2018-12-18T16:30:11.793Z,28.95
2018-12-18T16:32:18.529Z,28.88
2018-12-18T16:34:25.561Z,28.62
2018-12-18T16:36:32.494Z,29.06
2018-12-18T16:38:39.463Z,28.72
2018-12-18T16:40:46.835Z,28.32
2018-12-18T16:42:53.697Z,28.15
2018-12-18T16:45:01.019Z,28.38
2018-12-18T16:47:08.358Z,28.76
2018-12-18T16:49:15.357Z,28.90
2018-12-18T16:51:22.219Z,28.43
2018-12-18T16:53:29.314Z,27.66
2018-12-18T16:55:36.921Z,27.83
2018-12-18T16:57:43.748Z,28.54
2018-12-18T16:59:50.617Z,28.34
2018-12-18T17:01:57.558Z,28.39
2018-12-18T17:04:04.474Z,28.04
2018-12-18T17:06:11.323Z,28.21
2018-12-18T17:08:18.247Z,28.82
2018-12-18T17:10:24.957Z,29.05
2018-12-18T17:12:31.755Z,28.34
2018-12-18T17:14:38.440Z,28.39
2018-12-18T17:16:45.167Z,28.42
2018-12-18T17:18:52.292Z,28.56
2018-12-18T17:20:59.257Z,28.78
2018-12-18T17:23:06.153Z,29.37
2018-12-18T17:25:12.835Z,29.39
2018-12-18T17:27:19.904Z,29.10
2018-12-18T17:29:26.729Z,29.51
2018-12-18T17:31:33.901Z,29.50
2018-12-18T17:33:40.800Z,29.66
2018-12-18T17:35:47.685Z,29.14
2018-12-18T17:37:54.652Z,29.62
2018-12-18T17:40:01.382Z,29.62
2018-12-18T17:42:08.297Z,29.47
2018-12-18T17:44:14.994Z,29.71
2018-12-18T17:46:21.753Z,29.19
2018-12-18T17:48:28.406Z,29.59
2018-12-18T17:50:35.206Z,29.30
2018-12-18T17:52:42.256Z,29.43
2018-12-18T17:54:49.885Z,28.61
2018-12-18T17:56:56.825Z,28.23
2018-12-18T17:59:03.938Z,28.40
2018-12-18T18:01:10.756Z,27.64
2018-12-18T18:03:17.951Z,28.10
2018-12-18T18:05:24.616Z,27.92
2018-12-18T18:07:31.288Z,28.15
2018-12-18T18:09:37.874Z,27.85
2018-12-18T18:11:44.874Z,27.94
2018-12-18T18:13:51.714Z,27.67
2018-12-18T18:15:58.449Z,27.78
2018-12-18T18:18:05.386Z,27.98
2018-12-18T18:20:11.890Z,28.53
2018-12-18T18:22:18.782Z,28.28
2018-12-18T18:24:25.648Z,28.88
2018-12-18T18:26:32.570Z,28.65
2018-12-18T18:28:39.487Z,29.02
2018-12-18T18:30:46.065Z,28.73
2018-12-18T18:32:53.157Z,28.64
2018-12-18T18:35:00.129Z,29.27
2018-12-18T18:37:07.008Z,29.32
2018-12-18T18:39:15.267Z,28.97
2018-12-18T18:41:22.515Z,29.29
2018-12-18T18:43:29.860Z,29.33
2018-12-18T18:45:36.499Z,29.08
2018-12-18T18:47:42.994Z,29.16
2018-12-18T18:49:50.605Z,29.44
2018-12-18T18:51:57.349Z,29.34
2018-12-18T18:54:04.131Z,29.40
2018-12-18T18:56:11.194Z,29.08
2018-12-18T18:58:18.177Z,29.34
2018-12-18T19:00:26.145Z,28.69
2018-12-18T19:02:34.260Z,29.06
2018-12-18T19:04:41.213Z,28.92
2018-12-18T19:06:48.166Z,29.44
2018-12-18T19:08:55.487Z,29.29
2018-12-18T19:11:02.426Z,28.93
2018-12-18T19:13:09.141Z,29.36
2018-12-18T19:15:15.801Z,29.64
2018-12-18T19:17:23.082Z,29.82
2018-12-18T19:19:29.986Z,29.37
2018-12-18T19:21:36.742Z,30.04
2018-12-18T19:23:43.631Z,29.87
2018-12-18T19:25:50.661Z,29.93
2018-12-18T19:27:57.607Z,30.00
2018-12-18T19:30:04.432Z,30.04
2018-12-18T19:32:11.553Z,30.48
2018-12-18T19:34:18.860Z,30.44
2018-12-18T19:36:26.010Z,30.53
2018-12-18T19:38:33.171Z,30.14
2018-12-18T19:40:39.791Z,30.17
2018-12-18T19:42:47.399Z,30.53
2018-12-18T19:44:54.475Z,30.59
2018-12-18T19:47:01.499Z,29.96
2018-12-18T19:49:08.239Z,30.18
2018-12-18T19:51:15.078Z,29.68
2018-12-18T19:53:21.800Z,29.92
2018-12-18T19:55:28.838Z,30.34
2018-12-18T19:57:36.167Z,30.41
2018-12-18T19:59:43.556Z,30.02
2018-12-18T20:01:50.696Z,30.53
2018-12-18T20:03:57.415Z,29.79
2018-12-18T20:06:04.454Z,30.04
2018-12-18T20:08:11.414Z,30.33
2018-12-18T20:10:18.283Z,29.83
2018-12-18T20:12:25.624Z,29.33
2018-12-18T20:14:32.642Z,29.37
2018-12-18T20:16:39.542Z,28.97
2018-12-18T20:18:46.534Z,29.75
2018-12-18T20:20:53.470Z,28.87
2018-12-18T20:23:00.458Z,28.57
2018-12-18T20:25:07.679Z,29.77
2018-12-18T20:27:14.966Z,28.85
2018-12-18T20:29:21.886Z,28.82
2018-12-18T20:31:28.911Z,29.65
2018-12-18T20:33:35.836Z,29.43
2018-12-18T20:35:42.709Z,29.55
2018-12-18T20:37:49.922Z,29.54
2018-12-18T20:39:56.721Z,30.48
2018-12-18T20:42:07.873Z,30.23
2018-12-18T20:44:14.902Z,30.46
2018-12-18T20:46:21.609Z,30.68
2018-12-18T20:48:28.641Z,29.69
2018-12-18T20:50:35.453Z,30.50
2018-12-18T20:52:42.462Z,30.01
2018-12-18T20:54:50.090Z,29.72
2018-12-18T20:56:56.926Z,29.71
2018-12-18T20:59:04.353Z,30.06
2018-12-18T21:01:11.341Z,30.00
2018-12-18T21:03:18.246Z,30.62
2018-12-18T21:05:25.017Z,30.16
2018-12-18T21:07:31.776Z,29.64
2018-12-18T21:09:38.767Z,30.30
2018-12-18T21:11:45.622Z,29.66
2018-12-18T21:13:52.509Z,30.15
2018-12-18T21:15:59.410Z,29.76
2018-12-18T21:18:06.383Z,30.20
2018-12-18T21:20:13.056Z,30.36
2018-12-18T21:22:19.773Z,30.46
2018-12-18T21:24:26.805Z,29.80
2018-12-18T21:26:34.019Z,30.17
2018-12-18T21:28:41.045Z,30.38
2018-12-18T21:30:47.923Z,30.55
2018-12-18T21:32:54.918Z,30.68
2018-12-18T21:35:01.501Z,29.77
2018-12-18T21:37:08.499Z,29.90
2018-12-18T21:39:15.607Z,29.69
2018-12-18T21:41:22.430Z,29.50
2018-12-18T21:43:29.423Z,29.07
2018-12-18T21:45:36.226Z,29.36
2018-12-18T21:47:42.886Z,28.80
2018-12-18T21:49:50.281Z,28.80
2018-12-18T21:51:57.192Z,29.16
2018-12-18T21:54:04.275Z,29.22
2018-12-18T21:56:11.038Z,28.92
2018-12-18T21:58:17.832Z,28.88
2018-12-18T22:00:24.822Z,29.18
2018-12-18T22:02:31.456Z,28.97
2018-12-18T22:04:37.928Z,29.53
2018-12-18T22:06:44.592Z,29.63
2018-12-18T22:08:51.422Z,29.70
2018-12-18T22:10:58.496Z,29.59
2018-12-18T22:13:05.534Z,29.89
2018-12-18T22:15:12.641Z,29.77
2018-12-18T22:17:19.309Z,29.84
2018-12-18T22:19:25.984Z,30.25
2018-12-18T22:21:32.922Z,29.87
2018-12-18T22:23:39.550Z,30.32
2018-12-18T22:25:46.207Z,30.40
2018-12-18T22:27:53.546Z,29.75
2018-12-18T22:30:00.929Z,29.70
2018-12-18T22:32:08.097Z,29.90
2018-12-18T22:34:14.844Z,29.86
2018-12-18T22:38:33.617Z,29.80
2018-12-18T22:40:40.660Z,30.22
2018-12-18T22:42:47.552Z,30.17
2018-12-18T22:44:54.269Z,29.74
2018-12-18T22:47:01.094Z,29.83
2018-12-18T22:49:07.774Z,29.99
2018-12-18T22:51:14.653Z,30.45
2018-12-18T22:53:23.094Z,29.74
2018-12-18T22:55:31.349Z,30.55
2018-12-18T22:57:38.846Z,30.11
2018-12-18T22:59:45.596Z,29.45
2018-12-18T23:01:52.561Z,29.82
2018-12-18T23:04:00.856Z,30.14
2018-12-18T23:06:09.923Z,29.50
2018-12-18T23:08:18.419Z,30.10
2018-12-18T23:10:25.337Z,29.94
2018-12-18T23:12:33.014Z,29.94
2018-12-18T23:14:40.553Z,30.08
2018-12-18T23:16:47.595Z,30.10
2018-12-18T23:18:54.830Z,30.23
2018-12-18T23:21:03.286Z,29.85
2018-12-18T23:23:10.403Z,29.80
2018-12-18T23:25:18.391Z,29.47
2018-12-18T23:27:25.083Z,28.93
2018-12-18T23:29:31.849Z,29.27
2018-12-18T23:31:38.674Z,28.49
2018-12-18T23:33:45.722Z,29.33
2018-12-18T23:35:52.670Z,28.67
2018-12-18T23:38:00.058Z,29.14
2018-12-18T23:40:06.982Z,29.28
2018-12-18T23:42:13.533Z,29.32
2018-12-18T23:44:19.846Z,29.71
2018-12-18T23:46:26.866Z,28.64
2018-12-18T23:48:39.530Z,28.39
2018-12-18T23:50:42.869Z,28.53
2018-12-18T23:52:49.841Z,27.89
2018-12-18T23:54:56.481Z,28.21
2018-12-18T23:57:03.330Z,28.16
2018-12-18T23:59:10.367Z,28.64
